sensor_id;sensor_type;location;lat;lon;timestamp;P1;durP1;ratioP1;P2;durP2;ratioP2
15228;SDS011;7717;47.792;12.076;2023-08-20T00:01:44;7.60;;;4.80;;
15228;SDS011;7717;47.792;12.076;2023-08-20T00:04:10;6.27;;;4.70;;
15228;SDS011;7717;47.792;12.076;2023-08-20T00:06:36;4.93;;;4.47;;
15228;SDS011;7717;47.792;12.076;2023-08-20T00:09:01;6.83;;;5.00;;
15228;SDS011;7717;47.792;12.076;2023-08-20T00:11:26;5.60;;;5.00;;
15228;SDS011;7717;47.792;12.076;2023-08-20T00:13:51;8.97;;;5.47;;
15228;SDS011;7717;47.792;12.076;2023-08-20T00:16:17;7.10;;;5.07;;
15228;SDS011;7717;47.792;12.076;2023-08-20T00:18:42;7.83;;;4.80;;
15228;SDS011;7717;47.792;12.076;2023-08-20T00:21:10;5.50;;;4.17;;
15228;SDS011;7717;47.792;12.076;2023-08-20T00:23:36;8.17;;;4.90;;
15228;SDS011;7717;47.792;12.076;2023-08-20T00:26:02;7.37;;;4.70;;
15228;SDS011;7717;47.792;12.076;2023-08-20T00:28:27;7.87;;;4.93;;
15228;SDS011;7717;47.792;12.076;2023-08-20T00:30:52;8.00;;;4.80;;
15228;SDS011;7717;47.792;12.076;2023-08-20T00:33:18;8.87;;;5.23;;
15228;SDS011;7717;47.792;12.076;2023-08-20T00:35:43;9.83;;;5.17;;
15228;SDS011;7717;47.792;12.076;2023-08-20T00:38:11;6.27;;;4.50;;
15228;SDS011;7717;47.792;12.076;2023-08-20T00:40:37;6.90;;;4.63;;
15228;SDS011;7717;47.792;12.076;2023-08-20T00:43:02;4.83;;;4.43;;
15228;SDS011;7717;47.792;12.076;2023-08-20T00:45:27;5.60;;;4.93;;
15228;SDS011;7717;47.792;12.076;2023-08-20T00:47:57;7.10;;;4.90;;
15228;SDS011;7717;47.792;12.076;2023-08-20T00:50:26;5.30;;;4.50;;
15228;SDS011;7717;47.792;12.076;2023-08-20T00:52:52;7.17;;;4.60;;
15228;SDS011;7717;47.792;12.076;2023-08-20T00:55:17;6.50;;;4.23;;
15228;SDS011;7717;47.792;12.076;2023-08-20T00:57:42;5.73;;;4.27;;
15228;SDS011;7717;47.792;12.076;2023-08-20T01:00:08;4.83;;;4.43;;
15228;SDS011;7717;47.792;12.076;2023-08-20T01:02:38;8.47;;;4.83;;
15228;SDS011;7717;47.792;12.076;2023-08-20T01:05:03;5.30;;;4.80;;
15228;SDS011;7717;47.792;12.076;2023-08-20T01:10:18;6.00;;;5.40;;
15228;SDS011;7717;47.792;12.076;2023-08-20T01:12:44;5.33;;;4.83;;
15228;SDS011;7717;47.792;12.076;2023-08-20T01:15:10;7.33;;;5.23;;
15228;SDS011;7717;47.792;12.076;2023-08-20T01:17:42;6.77;;;5.00;;
15228;SDS011;7717;47.792;12.076;2023-08-20T01:20:08;5.33;;;4.83;;
15228;SDS011;7717;47.792;12.076;2023-08-20T01:22:53;5.93;;;4.80;;
15228;SDS011;7717;47.792;12.076;2023-08-20T01:25:27;5.30;;;4.70;;
15228;SDS011;7717;47.792;12.076;2023-08-20T01:28:02;5.23;;;4.73;;
15228;SDS011;7717;47.792;12.076;2023-08-20T01:30:28;5.87;;;4.20;;
15228;SDS011;7717;47.792;12.076;2023-08-20T01:32:57;7.83;;;4.70;;
15228;SDS011;7717;47.792;12.076;2023-08-20T01:35:24;6.43;;;5.30;;
15228;SDS011;7717;47.792;12.076;2023-08-20T01:37:49;6.13;;;4.90;;
15228;SDS011;7717;47.792;12.076;2023-08-20T01:40:14;5.40;;;4.87;;
15228;SDS011;7717;47.792;12.076;2023-08-20T01:42:40;7.67;;;5.07;;
15228;SDS011;7717;47.792;12.076;2023-08-20T01:45:06;10.00;;;5.33;;
15228;SDS011;7717;47.792;12.076;2023-08-20T01:47:32;7.10;;;4.87;;
15228;SDS011;7717;47.792;12.076;2023-08-20T01:49:57;8.27;;;5.50;;
15228;SDS011;7717;47.792;12.076;2023-08-20T01:52:23;6.33;;;5.10;;
15228;SDS011;7717;47.792;12.076;2023-08-20T01:54:52;6.50;;;5.03;;
15228;SDS011;7717;47.792;12.076;2023-08-20T01:57:18;5.17;;;4.67;;
15228;SDS011;7717;47.792;12.076;2023-08-20T01:59:43;7.57;;;5.70;;
15228;SDS011;7717;47.792;12.076;2023-08-20T02:02:09;5.97;;;5.40;;
15228;SDS011;7717;47.792;12.076;2023-08-20T02:04:34;7.63;;;5.10;;
15228;SDS011;7717;47.792;12.076;2023-08-20T02:07:00;6.33;;;5.73;;
15228;SDS011;7717;47.792;12.076;2023-08-20T02:09:25;6.63;;;5.53;;
15228;SDS011;7717;47.792;12.076;2023-08-20T02:11:50;9.83;;;7.00;;
15228;SDS011;7717;47.792;12.076;2023-08-20T02:14:19;6.40;;;5.53;;
15228;SDS011;7717;47.792;12.076;2023-08-20T02:16:48;6.70;;;6.00;;
15228;SDS011;7717;47.792;12.076;2023-08-20T02:19:13;6.87;;;6.17;;
15228;SDS011;7717;47.792;12.076;2023-08-20T02:21:39;10.70;;;5.90;;
15228;SDS011;7717;47.792;12.076;2023-08-20T02:24:04;6.77;;;6.07;;
15228;SDS011;7717;47.792;12.076;2023-08-20T02:26:29;5.93;;;5.37;;
15228;SDS011;7717;47.792;12.076;2023-08-20T02:28:55;6.80;;;6.07;;
15228;SDS011;7717;47.792;12.076;2023-08-20T02:31:20;7.40;;;6.23;;
15228;SDS011;7717;47.792;12.076;2023-08-20T02:33:48;8.00;;;6.87;;
15228;SDS011;7717;47.792;12.076;2023-08-20T02:36:14;6.80;;;6.10;;
15228;SDS011;7717;47.792;12.076;2023-08-20T02:38:39;7.90;;;7.20;;
15228;SDS011;7717;47.792;12.076;2023-08-20T02:41:04;9.90;;;8.03;;
15228;SDS011;7717;47.792;12.076;2023-08-20T02:43:30;8.13;;;6.13;;
15228;SDS011;7717;47.792;12.076;2023-08-20T02:45:56;7.63;;;6.27;;
15228;SDS011;7717;47.792;12.076;2023-08-20T02:48:21;6.97;;;5.90;;
15228;SDS011;7717;47.792;12.076;2023-08-20T02:50:46;6.60;;;5.67;;
15228;SDS011;7717;47.792;12.076;2023-08-20T02:53:15;6.50;;;5.80;;
15228;SDS011;7717;47.792;12.076;2023-08-20T02:55:40;7.07;;;5.87;;
15228;SDS011;7717;47.792;12.076;2023-08-20T02:58:05;8.17;;;5.47;;
15228;SDS011;7717;47.792;12.076;2023-08-20T03:00:34;7.30;;;5.80;;
15228;SDS011;7717;47.792;12.076;2023-08-20T03:03:00;8.03;;;6.03;;
15228;SDS011;7717;47.792;12.076;2023-08-20T03:05:27;7.20;;;6.00;;
15228;SDS011;7717;47.792;12.076;2023-08-20T03:07:53;8.77;;;5.87;;
15228;SDS011;7717;47.792;12.076;2023-08-20T03:10:18;9.27;;;6.30;;
15228;SDS011;7717;47.792;12.076;2023-08-20T03:12:43;8.87;;;6.40;;
15228;SDS011;7717;47.792;12.076;2023-08-20T03:15:08;8.50;;;7.33;;
15228;SDS011;7717;47.792;12.076;2023-08-20T03:17:34;7.53;;;6.33;;
15228;SDS011;7717;47.792;12.076;2023-08-20T03:20:00;9.93;;;5.87;;
15228;SDS011;7717;47.792;12.076;2023-08-20T03:22:26;8.13;;;6.13;;
15228;SDS011;7717;47.792;12.076;2023-08-20T03:24:54;7.50;;;6.67;;
15228;SDS011;7717;47.792;12.076;2023-08-20T03:27:20;7.93;;;5.73;;
15228;SDS011;7717;47.792;12.076;2023-08-20T03:29:45;9.77;;;6.83;;
15228;SDS011;7717;47.792;12.076;2023-08-20T03:32:11;7.23;;;6.60;;
15228;SDS011;7717;47.792;12.076;2023-08-20T03:34:36;10.00;;;6.30;;
15228;SDS011;7717;47.792;12.076;2023-08-20T03:37:02;7.07;;;6.43;;
15228;SDS011;7717;47.792;12.076;2023-08-20T03:39:27;7.60;;;6.40;;
15228;SDS011;7717;47.792;12.076;2023-08-20T03:41:55;7.30;;;6.60;;
15228;SDS011;7717;47.792;12.076;2023-08-20T03:44:21;7.80;;;7.10;;
15228;SDS011;7717;47.792;12.076;2023-08-20T03:46:46;6.07;;;5.47;;
15228;SDS011;7717;47.792;12.076;2023-08-20T03:49:12;8.23;;;6.67;;
15228;SDS011;7717;47.792;12.076;2023-08-20T03:51:37;7.07;;;6.37;;
15228;SDS011;7717;47.792;12.076;2023-08-20T03:54:02;7.23;;;6.60;;
15228;SDS011;7717;47.792;12.076;2023-08-20T03:56:28;8.70;;;6.50;;
15228;SDS011;7717;47.792;12.076;2023-08-20T03:58:56;8.90;;;5.97;;
15228;SDS011;7717;47.792;12.076;2023-08-20T04:01:22;7.17;;;6.43;;
15228;SDS011;7717;47.792;12.076;2023-08-20T04:03:47;7.23;;;5.97;;
15228;SDS011;7717;47.792;12.076;2023-08-20T04:06:13;8.40;;;6.27;;
15228;SDS011;7717;47.792;12.076;2023-08-20T04:08:39;7.70;;;7.00;;
15228;SDS011;7717;47.792;12.076;2023-08-20T04:11:04;6.73;;;6.13;;
15228;SDS011;7717;47.792;12.076;2023-08-20T04:13:29;10.37;;;7.43;;
15228;SDS011;7717;47.792;12.076;2023-08-20T04:15:55;7.67;;;6.30;;
15228;SDS011;7717;47.792;12.076;2023-08-20T04:18:20;8.10;;;6.73;;
15228;SDS011;7717;47.792;12.076;2023-08-20T04:20:45;9.80;;;6.73;;
15228;SDS011;7717;47.792;12.076;2023-08-20T04:23:11;7.63;;;5.97;;
15228;SDS011;7717;47.792;12.076;2023-08-20T04:25:36;6.53;;;5.80;;
15228;SDS011;7717;47.792;12.076;2023-08-20T04:28:01;6.27;;;5.53;;
15228;SDS011;7717;47.792;12.076;2023-08-20T04:30:27;8.27;;;5.90;;
15228;SDS011;7717;47.792;12.076;2023-08-20T04:32:52;6.10;;;5.27;;
15228;SDS011;7717;47.792;12.076;2023-08-20T04:35:17;7.23;;;5.77;;
15228;SDS011;7717;47.792;12.076;2023-08-20T04:37:42;6.77;;;6.07;;
15228;SDS011;7717;47.792;12.076;2023-08-20T04:40:08;5.70;;;5.20;;
15228;SDS011;7717;47.792;12.076;2023-08-20T04:42:36;8.00;;;5.60;;
15228;SDS011;7717;47.792;12.076;2023-08-20T04:45:01;9.27;;;5.10;;
15228;SDS011;7717;47.792;12.076;2023-08-20T04:47:30;8.40;;;5.97;;
15228;SDS011;7717;47.792;12.076;2023-08-20T04:49:55;5.80;;;5.13;;
15228;SDS011;7717;47.792;12.076;2023-08-20T04:52:20;7.47;;;5.60;;
15228;SDS011;7717;47.792;12.076;2023-08-20T04:54:46;7.40;;;5.57;;
15228;SDS011;7717;47.792;12.076;2023-08-20T04:57:14;7.77;;;5.80;;
15228;SDS011;7717;47.792;12.076;2023-08-20T04:59:41;8.97;;;5.07;;
15228;SDS011;7717;47.792;12.076;2023-08-20T05:02:10;6.43;;;4.70;;
15228;SDS011;7717;47.792;12.076;2023-08-20T05:04:35;5.93;;;5.30;;
15228;SDS011;7717;47.792;12.076;2023-08-20T05:07:00;8.67;;;5.87;;
15228;SDS011;7717;47.792;12.076;2023-08-20T05:09:25;5.43;;;4.93;;
15228;SDS011;7717;47.792;12.076;2023-08-20T05:11:51;5.10;;;4.60;;
15228;SDS011;7717;47.792;12.076;2023-08-20T05:14:16;5.83;;;4.43;;
15228;SDS011;7717;47.792;12.076;2023-08-20T05:16:41;7.43;;;4.70;;
15228;SDS011;7717;47.792;12.076;2023-08-20T05:19:07;6.10;;;4.67;;
15228;SDS011;7717;47.792;12.076;2023-08-20T05:21:32;5.40;;;4.90;;
15228;SDS011;7717;47.792;12.076;2023-08-20T05:23:57;8.57;;;5.00;;
15228;SDS011;7717;47.792;12.076;2023-08-20T05:26:23;5.73;;;4.60;;
15228;SDS011;7717;47.792;12.076;2023-08-20T05:28:54;8.43;;;5.03;;
15228;SDS011;7717;47.792;12.076;2023-08-20T05:31:29;7.53;;;5.17;;
15228;SDS011;7717;47.792;12.076;2023-08-20T05:34:03;6.77;;;5.00;;
15228;SDS011;7717;47.792;12.076;2023-08-20T05:36:50;6.57;;;4.93;;
15228;SDS011;7717;47.792;12.076;2023-08-20T05:39:15;9.37;;;4.67;;
15228;SDS011;7717;47.792;12.076;2023-08-20T05:41:41;5.13;;;4.63;;
15228;SDS011;7717;47.792;12.076;2023-08-20T05:44:09;7.70;;;4.67;;
15228;SDS011;7717;47.792;12.076;2023-08-20T05:46:35;5.07;;;4.23;;
15228;SDS011;7717;47.792;12.076;2023-08-20T05:49:00;5.90;;;4.70;;
15228;SDS011;7717;47.792;12.076;2023-08-20T05:51:25;6.00;;;4.67;;
15228;SDS011;7717;47.792;12.076;2023-08-20T05:53:50;8.70;;;5.03;;
15228;SDS011;7717;47.792;12.076;2023-08-20T05:56:16;6.53;;;4.53;;
15228;SDS011;7717;47.792;12.076;2023-08-20T05:58:41;5.53;;;4.30;;
15228;SDS011;7717;47.792;12.076;2023-08-20T06:01:06;6.00;;;4.57;;
15228;SDS011;7717;47.792;12.076;2023-08-20T06:03:31;5.67;;;4.53;;
15228;SDS011;7717;47.792;12.076;2023-08-20T06:05:57;7.83;;;4.80;;
15228;SDS011;7717;47.792;12.076;2023-08-20T06:08:23;5.17;;;4.67;;
15228;SDS011;7717;47.792;12.076;2023-08-20T06:10:48;6.13;;;4.73;;
15228;SDS011;7717;47.792;12.076;2023-08-20T06:13:14;6.30;;;5.13;;
15228;SDS011;7717;47.792;12.076;2023-08-20T06:15:39;7.63;;;4.53;;
15228;SDS011;7717;47.792;12.076;2023-08-20T06:18:04;7.80;;;4.60;;
15228;SDS011;7717;47.792;12.076;2023-08-20T06:20:29;4.77;;;4.37;;
15228;SDS011;7717;47.792;12.076;2023-08-20T06:22:55;5.63;;;4.30;;
15228;SDS011;7717;47.792;12.076;2023-08-20T06:25:20;5.33;;;4.27;;
15228;SDS011;7717;47.792;12.076;2023-08-20T06:27:45;6.07;;;4.87;;
15228;SDS011;7717;47.792;12.076;2023-08-20T06:30:13;7.50;;;4.60;;
15228;SDS011;7717;47.792;12.076;2023-08-20T06:32:39;7.73;;;4.77;;
15228;SDS011;7717;47.792;12.076;2023-08-20T06:35:05;6.33;;;4.37;;
15228;SDS011;7717;47.792;12.076;2023-08-20T06:37:30;9.50;;;4.40;;
15228;SDS011;7717;47.792;12.076;2023-08-20T06:39:55;5.17;;;4.57;;
15228;SDS011;7717;47.792;12.076;2023-08-20T06:42:20;6.43;;;4.20;;
15228;SDS011;7717;47.792;12.076;2023-08-20T06:44:46;5.33;;;4.80;;
15228;SDS011;7717;47.792;12.076;2023-08-20T06:47:11;5.33;;;4.83;;
15228;SDS011;7717;47.792;12.076;2023-08-20T06:49:37;7.17;;;4.50;;
15228;SDS011;7717;47.792;12.076;2023-08-20T06:52:02;5.30;;;4.80;;
15228;SDS011;7717;47.792;12.076;2023-08-20T06:54:27;5.73;;;4.40;;
15228;SDS011;7717;47.792;12.076;2023-08-20T06:56:53;5.50;;;5.00;;
15228;SDS011;7717;47.792;12.076;2023-08-20T06:59:18;4.80;;;4.40;;
15228;SDS011;7717;47.792;12.076;2023-08-20T07:01:43;8.87;;;4.93;;
15228;SDS011;7717;47.792;12.076;2023-08-20T07:04:09;6.13;;;4.73;;
15228;SDS011;7717;47.792;12.076;2023-08-20T07:06:34;6.53;;;5.43;;
15228;SDS011;7717;47.792;12.076;2023-08-20T07:08:59;8.60;;;4.93;;
15228;SDS011;7717;47.792;12.076;2023-08-20T07:11:27;8.30;;;5.57;;
15228;SDS011;7717;47.792;12.076;2023-08-20T07:13:53;5.17;;;4.77;;
15228;SDS011;7717;47.792;12.076;2023-08-20T07:16:18;8.83;;;5.10;;
15228;SDS011;7717;47.792;12.076;2023-08-20T07:18:44;5.63;;;4.83;;
15228;SDS011;7717;47.792;12.076;2023-08-20T07:21:09;7.43;;;5.23;;
15228;SDS011;7717;47.792;12.076;2023-08-20T07:23:34;5.33;;;4.93;;
15228;SDS011;7717;47.792;12.076;2023-08-20T07:26:07;5.20;;;4.70;;
15228;SDS011;7717;47.792;12.076;2023-08-20T07:28:32;6.20;;;4.87;;
15228;SDS011;7717;47.792;12.076;2023-08-20T07:31:25;11.80;;;5.50;;
15228;SDS011;7717;47.792;12.076;2023-08-20T07:33:51;8.53;;;5.33;;
15228;SDS011;7717;47.792;12.076;2023-08-20T07:36:22;7.33;;;4.90;;
15228;SDS011;7717;47.792;12.076;2023-08-20T07:38:47;6.90;;;5.37;;
15228;SDS011;7717;47.792;12.076;2023-08-20T07:41:12;7.93;;;5.30;;
15228;SDS011;7717;47.792;12.076;2023-08-20T07:43:38;5.57;;;5.07;;
15228;SDS011;7717;47.792;12.076;2023-08-20T07:46:04;6.03;;;4.77;;
15228;SDS011;7717;47.792;12.076;2023-08-20T07:48:32;5.78;;;4.95;;
15228;SDS011;7717;47.792;12.076;2023-08-20T07:50:57;9.52;;;5.22;;
15228;SDS011;7717;47.792;12.076;2023-08-20T07:53:22;5.37;;;4.13;;
15228;SDS011;7717;47.792;12.076;2023-08-20T07:55:48;5.80;;;5.20;;
15228;SDS011;7717;47.792;12.076;2023-08-20T07:58:13;7.10;;;5.20;;
15228;SDS011;7717;47.792;12.076;2023-08-20T08:00:38;6.00;;;5.15;;
15228;SDS011;7717;47.792;12.076;2023-08-20T08:03:04;6.32;;;4.88;;
15228;SDS011;7717;47.792;12.076;2023-08-20T08:05:29;6.25;;;5.07;;
15228;SDS011;7717;47.792;12.076;2023-08-20T08:07:54;8.10;;;5.18;;
15228;SDS011;7717;47.792;12.076;2023-08-20T08:10:28;6.45;;;5.40;;
15228;SDS011;7717;47.792;12.076;2023-08-20T08:12:54;7.75;;;4.78;;
15228;SDS011;7717;47.792;12.076;2023-08-20T08:15:28;5.75;;;5.20;;
15228;SDS011;7717;47.792;12.076;2023-08-20T08:17:53;5.82;;;4.85;;
15228;SDS011;7717;47.792;12.076;2023-08-20T08:20:21;5.75;;;4.45;;
15228;SDS011;7717;47.792;12.076;2023-08-20T08:22:50;6.18;;;4.95;;
15228;SDS011;7717;47.792;12.076;2023-08-20T08:25:15;5.60;;;4.93;;
15228;SDS011;7717;47.792;12.076;2023-08-20T08:27:40;5.78;;;5.10;;
15228;SDS011;7717;47.792;12.076;2023-08-20T08:30:05;7.28;;;4.70;;
15228;SDS011;7717;47.792;12.076;2023-08-20T08:32:31;7.28;;;4.95;;
15228;SDS011;7717;47.792;12.076;2023-08-20T08:34:56;7.18;;;4.70;;
15228;SDS011;7717;47.792;12.076;2023-08-20T08:37:21;5.40;;;4.90;;
15228;SDS011;7717;47.792;12.076;2023-08-20T08:39:56;5.80;;;4.55;;
15228;SDS011;7717;47.792;12.076;2023-08-20T08:42:22;5.18;;;4.78;;
15228;SDS011;7717;47.792;12.076;2023-08-20T08:44:54;6.50;;;4.30;;
15228;SDS011;7717;47.792;12.076;2023-08-20T08:47:21;5.90;;;5.13;;
15228;SDS011;7717;47.792;12.076;2023-08-20T08:49:47;5.80;;;4.80;;
15228;SDS011;7717;47.792;12.076;2023-08-20T08:52:13;4.88;;;4.43;;
15228;SDS011;7717;47.792;12.076;2023-08-20T08:54:38;6.57;;;5.18;;
15228;SDS011;7717;47.792;12.076;2023-08-20T08:57:04;4.88;;;4.47;;
15228;SDS011;7717;47.792;12.076;2023-08-20T08:59:30;5.70;;;4.70;;
15228;SDS011;7717;47.792;12.076;2023-08-20T09:01:55;5.07;;;4.47;;
15228;SDS011;7717;47.792;12.076;2023-08-20T09:04:28;8.23;;;5.70;;
15228;SDS011;7717;47.792;12.076;2023-08-20T09:06:55;6.78;;;4.95;;
15228;SDS011;7717;47.792;12.076;2023-08-20T09:09:20;9.02;;;4.80;;
15228;SDS011;7717;47.792;12.076;2023-08-20T09:11:46;6.75;;;4.90;;
15228;SDS011;7717;47.792;12.076;2023-08-20T09:14:22;6.97;;;5.05;;
15228;SDS011;7717;47.792;12.076;2023-08-20T09:16:53;6.75;;;4.80;;
15228;SDS011;7717;47.792;12.076;2023-08-20T09:19:19;6.00;;;5.05;;
15228;SDS011;7717;47.792;12.076;2023-08-20T09:21:45;7.30;;;5.00;;
15228;SDS011;7717;47.792;12.076;2023-08-20T09:24:11;5.30;;;4.75;;
15228;SDS011;7717;47.792;12.076;2023-08-20T09:26:37;7.15;;;4.90;;
15228;SDS011;7717;47.792;12.076;2023-08-20T09:29:02;6.50;;;4.90;;
15228;SDS011;7717;47.792;12.076;2023-08-20T09:31:37;6.38;;;5.05;;
15228;SDS011;7717;47.792;12.076;2023-08-20T09:34:03;6.13;;;4.50;;
15228;SDS011;7717;47.792;12.076;2023-08-20T09:36:33;7.10;;;4.90;;
15228;SDS011;7717;47.792;12.076;2023-08-20T09:38:58;5.32;;;4.82;;
15228;SDS011;7717;47.792;12.076;2023-08-20T09:41:23;6.15;;;5.50;;
15228;SDS011;7717;47.792;12.076;2023-08-20T09:43:51;6.25;;;5.15;;
15228;SDS011;7717;47.792;12.076;2023-08-20T09:46:23;5.05;;;4.65;;
15228;SDS011;7717;47.792;12.076;2023-08-20T09:48:52;5.75;;;4.43;;
15228;SDS011;7717;47.792;12.076;2023-08-20T09:51:23;6.90;;;4.65;;
15228;SDS011;7717;47.792;12.076;2023-08-20T09:54:03;5.25;;;4.72;;
15228;SDS011;7717;47.792;12.076;2023-08-20T09:56:31;8.95;;;5.00;;
15228;SDS011;7717;47.792;12.076;2023-08-20T09:59:00;8.57;;;4.90;;
15228;SDS011;7717;47.792;12.076;2023-08-20T10:01:27;6.15;;;4.25;;
15228;SDS011;7717;47.792;12.076;2023-08-20T10:03:52;8.43;;;5.55;;
15228;SDS011;7717;47.792;12.076;2023-08-20T10:06:18;5.85;;;5.32;;
15228;SDS011;7717;47.792;12.076;2023-08-20T10:08:44;5.38;;;4.63;;
15228;SDS011;7717;47.792;12.076;2023-08-20T10:11:11;8.18;;;5.03;;
15228;SDS011;7717;47.792;12.076;2023-08-20T10:13:36;6.28;;;4.38;;
15228;SDS011;7717;47.792;12.076;2023-08-20T10:16:02;6.40;;;4.88;;
15228;SDS011;7717;47.792;12.076;2023-08-20T10:18:27;4.90;;;4.50;;
15228;SDS011;7717;47.792;12.076;2023-08-20T10:20:53;5.68;;;4.88;;
15228;SDS011;7717;47.792;12.076;2023-08-20T10:23:21;8.27;;;4.45;;
15228;SDS011;7717;47.792;12.076;2023-08-20T10:25:48;5.00;;;4.50;;
15228;SDS011;7717;47.792;12.076;2023-08-20T10:28:14;4.70;;;4.30;;
15228;SDS011;7717;47.792;12.076;2023-08-20T10:33:37;7.80;;;4.78;;
15228;SDS011;7717;47.792;12.076;2023-08-20T10:36:10;6.95;;;4.47;;
15228;SDS011;7717;47.792;12.076;2023-08-20T10:38:38;5.15;;;4.65;;
15228;SDS011;7717;47.792;12.076;2023-08-20T10:41:08;5.95;;;4.80;;
15228;SDS011;7717;47.792;12.076;2023-08-20T10:43:37;5.22;;;4.70;;
15228;SDS011;7717;47.792;12.076;2023-08-20T10:46:03;7.03;;;5.07;;
15228;SDS011;7717;47.792;12.076;2023-08-20T10:48:29;6.70;;;4.95;;
15228;SDS011;7717;47.792;12.076;2023-08-20T10:50:55;5.32;;;4.82;;
15228;SDS011;7717;47.792;12.076;2023-08-20T10:53:27;7.35;;;5.15;;
15228;SDS011;7717;47.792;12.076;2023-08-20T10:55:52;5.10;;;4.63;;
15228;SDS011;7717;47.792;12.076;2023-08-20T10:58:23;7.85;;;4.57;;
15228;SDS011;7717;47.792;12.076;2023-08-20T11:01:11;7.70;;;5.20;;
15228;SDS011;7717;47.792;12.076;2023-08-20T11:03:34;7.07;;;4.80;;
15228;SDS011;7717;47.792;12.076;2023-08-20T11:06:03;4.88;;;4.50;;
15228;SDS011;7717;47.792;12.076;2023-08-20T11:08:29;4.95;;;4.45;;
15228;SDS011;7717;47.792;12.076;2023-08-20T11:10:54;4.93;;;4.53;;
15228;SDS011;7717;47.792;12.076;2023-08-20T11:13:19;5.97;;;4.22;;
15228;SDS011;7717;47.792;12.076;2023-08-20T11:15:45;7.90;;;4.77;;
15228;SDS011;7717;47.792;12.076;2023-08-20T11:18:11;4.53;;;4.13;;
15228;SDS011;7717;47.792;12.076;2023-08-20T11:20:36;9.05;;;4.95;;
15228;SDS011;7717;47.792;12.076;2023-08-20T11:23:01;5.50;;;4.97;;
15228;SDS011;7717;47.792;12.076;2023-08-20T11:25:28;5.22;;;4.30;;
15228;SDS011;7717;47.792;12.076;2023-08-20T11:27:53;6.88;;;4.55;;
15228;SDS011;7717;47.792;12.076;2023-08-20T11:30:18;6.00;;;4.75;;
15228;SDS011;7717;47.792;12.076;2023-08-20T11:32:44;5.07;;;4.22;;
15228;SDS011;7717;47.792;12.076;2023-08-20T11:35:11;5.43;;;4.38;;
15228;SDS011;7717;47.792;12.076;2023-08-20T11:37:37;5.15;;;4.20;;
15228;SDS011;7717;47.792;12.076;2023-08-20T11:40:05;4.57;;;3.60;;
15228;SDS011;7717;47.792;12.076;2023-08-20T11:42:32;4.32;;;3.92;;
15228;SDS011;7717;47.792;12.076;2023-08-20T11:44:57;5.57;;;4.07;;
15228;SDS011;7717;47.792;12.076;2023-08-20T11:47:22;4.22;;;3.83;;
15228;SDS011;7717;47.792;12.076;2023-08-20T11:50:01;5.20;;;3.60;;
15228;SDS011;7717;47.792;12.076;2023-08-20T11:52:26;3.88;;;3.53;;
15228;SDS011;7717;47.792;12.076;2023-08-20T11:54:52;3.85;;;3.10;;
15228;SDS011;7717;47.792;12.076;2023-08-20T11:57:17;3.80;;;3.50;;
15228;SDS011;7717;47.792;12.076;2023-08-20T11:59:46;3.65;;;3.00;;
15228;SDS011;7717;47.792;12.076;2023-08-20T12:02:12;4.47;;;3.30;;
15228;SDS011;7717;47.792;12.076;2023-08-20T12:04:37;3.95;;;3.55;;
15228;SDS011;7717;47.792;12.076;2023-08-20T12:07:08;3.83;;;3.38;;
15228;SDS011;7717;47.792;12.076;2023-08-20T12:09:33;3.88;;;3.30;;
15228;SDS011;7717;47.792;12.076;2023-08-20T12:11:59;3.60;;;3.30;;
15228;SDS011;7717;47.792;12.076;2023-08-20T12:14:25;3.70;;;3.40;;
15228;SDS011;7717;47.792;12.076;2023-08-20T12:16:50;6.15;;;3.30;;
15228;SDS011;7717;47.792;12.076;2023-08-20T12:19:18;3.58;;;3.28;;
15228;SDS011;7717;47.792;12.076;2023-08-20T12:21:47;4.22;;;3.13;;
15228;SDS011;7717;47.792;12.076;2023-08-20T12:24:15;3.35;;;3.08;;
15228;SDS011;7717;47.792;12.076;2023-08-20T12:26:41;3.78;;;3.20;;
15228;SDS011;7717;47.792;12.076;2023-08-20T12:29:07;6.93;;;3.85;;
15228;SDS011;7717;47.792;12.076;2023-08-20T12:31:32;4.57;;;3.88;;
15228;SDS011;7717;47.792;12.076;2023-08-20T12:33:58;3.72;;;3.13;;
15228;SDS011;7717;47.792;12.076;2023-08-20T12:36:24;4.13;;;3.72;;
15228;SDS011;7717;47.792;12.076;2023-08-20T12:38:49;3.83;;;3.53;;
15228;SDS011;7717;47.792;12.076;2023-08-20T12:41:15;3.28;;;2.95;;
15228;SDS011;7717;47.792;12.076;2023-08-20T12:43:40;3.53;;;3.30;;
15228;SDS011;7717;47.792;12.076;2023-08-20T12:46:09;3.67;;;3.33;;
15228;SDS011;7717;47.792;12.076;2023-08-20T12:48:34;4.53;;;3.25;;
15228;SDS011;7717;47.792;12.076;2023-08-20T12:51:09;4.68;;;3.60;;
15228;SDS011;7717;47.792;12.076;2023-08-20T12:53:38;4.05;;;3.58;;
15228;SDS011;7717;47.792;12.076;2023-08-20T12:56:03;4.80;;;3.30;;
15228;SDS011;7717;47.792;12.076;2023-08-20T12:58:28;3.63;;;3.33;;
15228;SDS011;7717;47.792;12.076;2023-08-20T13:00:54;4.55;;;3.97;;
15228;SDS011;7717;47.792;12.076;2023-08-20T13:03:19;4.00;;;3.60;;
15228;SDS011;7717;47.792;12.076;2023-08-20T13:05:47;4.20;;;3.90;;
15228;SDS011;7717;47.792;12.076;2023-08-20T13:08:12;3.83;;;3.42;;
15228;SDS011;7717;47.792;12.076;2023-08-20T13:10:39;6.03;;;3.65;;
15228;SDS011;7717;47.792;12.076;2023-08-20T13:13:05;4.70;;;3.55;;
15228;SDS011;7717;47.792;12.076;2023-08-20T13:15:32;3.50;;;3.20;;
15228;SDS011;7717;47.792;12.076;2023-08-20T13:17:58;6.13;;;4.10;;
15228;SDS011;7717;47.792;12.076;2023-08-20T13:20:23;3.97;;;3.53;;
15228;SDS011;7717;47.792;12.076;2023-08-20T13:22:50;4.05;;;3.78;;
15228;SDS011;7717;47.792;12.076;2023-08-20T13:25:22;4.35;;;3.80;;
15228;SDS011;7717;47.792;12.076;2023-08-20T13:27:48;6.85;;;3.80;;
15228;SDS011;7717;47.792;12.076;2023-08-20T13:30:13;3.75;;;3.55;;
15228;SDS011;7717;47.792;12.076;2023-08-20T13:32:39;4.15;;;3.75;;
15228;SDS011;7717;47.792;12.076;2023-08-20T13:35:04;4.10;;;3.40;;
15228;SDS011;7717;47.792;12.076;2023-08-20T13:37:30;3.88;;;3.58;;
15228;SDS011;7717;47.792;12.076;2023-08-20T13:39:58;3.60;;;3.10;;
15228;SDS011;7717;47.792;12.076;2023-08-20T13:42:24;4.03;;;3.72;;
15228;SDS011;7717;47.792;12.076;2023-08-20T13:44:49;3.58;;;3.30;;
15228;SDS011;7717;47.792;12.076;2023-08-20T13:47:14;3.70;;;3.40;;
15228;SDS011;7717;47.792;12.076;2023-08-20T13:49:39;6.50;;;3.90;;
15228;SDS011;7717;47.792;12.076;2023-08-20T13:52:11;4.03;;;3.72;;
15228;SDS011;7717;47.792;12.076;2023-08-20T13:54:36;4.85;;;3.92;;
15228;SDS011;7717;47.792;12.076;2023-08-20T13:57:02;5.68;;;3.90;;
15228;SDS011;7717;47.792;12.076;2023-08-20T13:59:28;5.00;;;3.42;;
15228;SDS011;7717;47.792;12.076;2023-08-20T14:02:00;4.13;;;3.63;;
15228;SDS011;7717;47.792;12.076;2023-08-20T14:04:25;4.85;;;3.67;;
15228;SDS011;7717;47.792;12.076;2023-08-20T14:06:51;3.40;;;3.10;;
15228;SDS011;7717;47.792;12.076;2023-08-20T14:09:16;8.23;;;3.53;;
15228;SDS011;7717;47.792;12.076;2023-08-20T14:11:47;3.83;;;3.53;;
15228;SDS011;7717;47.792;12.076;2023-08-20T14:14:12;3.63;;;3.42;;
15228;SDS011;7717;47.792;12.076;2023-08-20T14:16:38;4.43;;;3.58;;
15228;SDS011;7717;47.792;12.076;2023-08-20T14:19:03;5.30;;;3.92;;
15228;SDS011;7717;47.792;12.076;2023-08-20T14:21:28;4.45;;;4.07;;
15228;SDS011;7717;47.792;12.076;2023-08-20T14:23:54;4.70;;;3.72;;
15228;SDS011;7717;47.792;12.076;2023-08-20T14:26:19;4.57;;;4.13;;
15228;SDS011;7717;47.792;12.076;2023-08-20T14:28:45;4.72;;;3.72;;
15228;SDS011;7717;47.792;12.076;2023-08-20T14:31:10;4.90;;;3.60;;
15228;SDS011;7717;47.792;12.076;2023-08-20T14:33:35;3.50;;;3.22;;
15228;SDS011;7717;47.792;12.076;2023-08-20T14:36:03;4.63;;;3.65;;
15228;SDS011;7717;47.792;12.076;2023-08-20T14:38:29;4.07;;;3.38;;
15228;SDS011;7717;47.792;12.076;2023-08-20T14:40:58;4.35;;;3.50;;
15228;SDS011;7717;47.792;12.076;2023-08-20T14:43:24;4.13;;;3.83;;
15228;SDS011;7717;47.792;12.076;2023-08-20T14:45:53;3.95;;;3.60;;
15228;SDS011;7717;47.792;12.076;2023-08-20T14:48:23;4.43;;;3.60;;
15228;SDS011;7717;47.792;12.076;2023-08-20T14:50:49;5.60;;;3.85;;